sensor_id;sensor_type;location;lat;lon;timestamp;P1;durP1;ratioP1;P2;durP2;ratioP2
74821;SDS011;63353;48.702;8.884;2024-03-08T00:00:22;1999.90;;;999.90;;
74821;SDS011;63353;48.702;8.884;2024-03-08T00:02:47;1999.90;;;999.90;;
74821;SDS011;63353;48.702;8.884;2024-03-08T00:05:15;1999.90;;;999.90;;
74821;SDS011;63353;48.702;8.884;2024-03-08T00:07:43;1999.90;;;999.90;;
74821;SDS011;63353;48.702;8.884;2024-03-08T00:10:09;1999.90;;;999.90;;
74821;SDS011;63353;48.702;8.884;2024-03-08T00:12:37;1999.90;;;999.90;;
74821;SDS011;63353;48.702;8.884;2024-03-08T00:15:03;1999.90;;;999.90;;
74821;SDS011;63353;48.702;8.884;2024-03-08T00:17:31;1999.90;;;999.90;;
74821;SDS011;63353;48.702;8.884;2024-03-08T00:19:57;1999.90;;;999.90;;
74821;SDS011;63353;48.702;8.884;2024-03-08T00:22:23;1999.90;;;999.90;;
74821;SDS011;63353;48.702;8.884;2024-03-08T00:24:49;1999.90;;;999.90;;
74821;SDS011;63353;48.702;8.884;2024-03-08T00:27:18;1999.90;;;999.90;;
74821;SDS011;63353;48.702;8.884;2024-03-08T00:29:46;1999.90;;;999.90;;
74821;SDS011;63353;48.702;8.884;2024-03-08T00:32:12;1999.90;;;999.90;;
74821;SDS011;63353;48.702;8.884;2024-03-08T00:34:38;1999.90;;;999.90;;
74821;SDS011;63353;48.702;8.884;2024-03-08T00:37:03;1999.90;;;999.90;;
74821;SDS011;63353;48.702;8.884;2024-03-08T00:39:29;1999.90;;;999.90;;
74821;SDS011;63353;48.702;8.884;2024-03-08T00:41:55;1999.90;;;999.90;;
74821;SDS011;63353;48.702;8.884;2024-03-08T00:44:22;1999.90;;;999.90;;
74821;SDS011;63353;48.702;8.884;2024-03-08T00:46:49;1999.90;;;999.90;;
74821;SDS011;63353;48.702;8.884;2024-03-08T00:49:17;1999.90;;;999.90;;
74821;SDS011;63353;48.702;8.884;2024-03-08T00:51:42;1999.90;;;999.90;;
74821;SDS011;63353;48.702;8.884;2024-03-08T00:54:08;1999.90;;;999.90;;
74821;SDS011;63353;48.702;8.884;2024-03-08T00:56:34;1999.90;;;999.90;;
74821;SDS011;63353;48.702;8.884;2024-03-08T00:59:01;1999.90;;;999.90;;
74821;SDS011;63353;48.702;8.884;2024-03-08T01:01:27;1999.90;;;999.90;;
74821;SDS011;63353;48.702;8.884;2024-03-08T01:03:53;1999.90;;;999.90;;
74821;SDS011;63353;48.702;8.884;2024-03-08T01:06:19;1999.90;;;999.90;;
74821;SDS011;63353;48.702;8.884;2024-03-08T01:08:46;1999.90;;;999.90;;
74821;SDS011;63353;48.702;8.884;2024-03-08T01:11:13;1999.90;;;999.90;;
74821;SDS011;63353;48.702;8.884;2024-03-08T01:13:39;1999.90;;;999.90;;
74821;SDS011;63353;48.702;8.884;2024-03-08T01:16:04;1999.90;;;999.90;;
74821;SDS011;63353;48.702;8.884;2024-03-08T01:18:30;1999.90;;;999.90;;
74821;SDS011;63353;48.702;8.884;2024-03-08T01:20:56;1999.90;;;999.90;;
74821;SDS011;63353;48.702;8.884;2024-03-08T01:23:22;1999.90;;;999.90;;
74821;SDS011;63353;48.702;8.884;2024-03-08T01:25:48;1999.90;;;999.90;;
74821;SDS011;63353;48.702;8.884;2024-03-08T01:28:14;1999.90;;;999.90;;
74821;SDS011;63353;48.702;8.884;2024-03-08T01:30:41;1999.90;;;999.90;;
74821;SDS011;63353;48.702;8.884;2024-03-08T01:33:08;1999.90;;;999.90;;
74821;SDS011;63353;48.702;8.884;2024-03-08T01:35:35;1999.90;;;999.90;;
74821;SDS011;63353;48.702;8.884;2024-03-08T01:38:00;1999.90;;;999.90;;
74821;SDS011;63353;48.702;8.884;2024-03-08T01:40:26;1999.90;;;999.90;;
74821;SDS011;63353;48.702;8.884;2024-03-08T01:42:52;1999.90;;;999.90;;
74821;SDS011;63353;48.702;8.884;2024-03-08T01:45:18;1999.90;;;999.90;;
74821;SDS011;63353;48.702;8.884;2024-03-08T01:47:44;1999.90;;;999.90;;
74821;SDS011;63353;48.702;8.884;2024-03-08T01:50:13;1999.90;;;999.90;;
74821;SDS011;63353;48.702;8.884;2024-03-08T01:52:41;1999.90;;;999.90;;
74821;SDS011;63353;48.702;8.884;2024-03-08T01:55:08;1999.90;;;999.90;;
74821;SDS011;63353;48.702;8.884;2024-03-08T01:57:34;1999.90;;;999.90;;
74821;SDS011;63353;48.702;8.884;2024-03-08T02:00:03;1999.90;;;999.90;;
74821;SDS011;63353;48.702;8.884;2024-03-08T02:02:30;1999.90;;;999.90;;
74821;SDS011;63353;48.702;8.884;2024-03-08T02:04:57;1999.90;;;999.90;;
74821;SDS011;63353;48.702;8.884;2024-03-08T02:07:23;1999.90;;;999.90;;
74821;SDS011;63353;48.702;8.884;2024-03-08T02:09:49;1999.90;;;999.90;;
74821;SDS011;63353;48.702;8.884;2024-03-08T02:12:16;1999.90;;;999.90;;
74821;SDS011;63353;48.702;8.884;2024-03-08T02:14:41;1999.90;;;999.90;;
74821;SDS011;63353;48.702;8.884;2024-03-08T02:17:08;1999.90;;;999.90;;
74821;SDS011;63353;48.702;8.884;2024-03-08T02:19:34;1999.90;;;999.90;;
74821;SDS011;63353;48.702;8.884;2024-03-08T02:22:01;1999.90;;;999.90;;
74821;SDS011;63353;48.702;8.884;2024-03-08T02:24:29;1999.90;;;999.90;;
74821;SDS011;63353;48.702;8.884;2024-03-08T02:26:55;1999.90;;;999.90;;
74821;SDS011;63353;48.702;8.884;2024-03-08T02:29:22;1999.90;;;999.90;;
74821;SDS011;63353;48.702;8.884;2024-03-08T02:31:50;1999.90;;;999.90;;
74821;SDS011;63353;48.702;8.884;2024-03-08T02:34:17;1999.90;;;999.90;;
74821;SDS011;63353;48.702;8.884;2024-03-08T02:36:45;1999.90;;;999.90;;
74821;SDS011;63353;48.702;8.884;2024-03-08T02:39:13;1999.90;;;999.90;;
74821;SDS011;63353;48.702;8.884;2024-03-08T02:41:38;1999.90;;;999.90;;
74821;SDS011;63353;48.702;8.884;2024-03-08T02:44:04;1999.90;;;999.90;;
74821;SDS011;63353;48.702;8.884;2024-03-08T02:46:30;1999.90;;;999.90;;
74821;SDS011;63353;48.702;8.884;2024-03-08T02:48:55;1999.90;;;999.90;;
74821;SDS011;63353;48.702;8.884;2024-03-08T02:51:21;1999.90;;;999.90;;
74821;SDS011;63353;48.702;8.884;2024-03-08T02:53:47;1999.90;;;999.90;;
74821;SDS011;63353;48.702;8.884;2024-03-08T02:56:14;1999.90;;;999.90;;
74821;SDS011;63353;48.702;8.884;2024-03-08T02:58:41;1999.90;;;999.90;;
74821;SDS011;63353;48.702;8.884;2024-03-08T03:01:07;1999.90;;;999.90;;
74821;SDS011;63353;48.702;8.884;2024-03-08T03:03:35;1999.90;;;999.90;;
74821;SDS011;63353;48.702;8.884;2024-03-08T03:06:01;1999.90;;;999.90;;
74821;SDS011;63353;48.702;8.884;2024-03-08T03:08:26;1999.90;;;999.90;;
74821;SDS011;63353;48.702;8.884;2024-03-08T03:10:52;1999.90;;;999.90;;
74821;SDS011;63353;48.702;8.884;2024-03-08T03:13:17;1999.90;;;999.90;;
74821;SDS011;63353;48.702;8.884;2024-03-08T03:15:46;1999.90;;;999.90;;
74821;SDS011;63353;48.702;8.884;2024-03-08T03:18:11;1999.90;;;999.90;;
74821;SDS011;63353;48.702;8.884;2024-03-08T03:20:37;1999.90;;;999.90;;
74821;SDS011;63353;48.702;8.884;2024-03-08T03:23:07;1999.90;;;999.90;;
74821;SDS011;63353;48.702;8.884;2024-03-08T03:25:34;1999.90;;;999.90;;
74821;SDS011;63353;48.702;8.884;2024-03-08T03:28:03;1999.90;;;999.90;;
74821;SDS011;63353;48.702;8.884;2024-03-08T03:30:29;1999.90;;;999.90;;
74821;SDS011;63353;48.702;8.884;2024-03-08T03:33:01;1999.90;;;999.90;;
74821;SDS011;63353;48.702;8.884;2024-03-08T03:35:31;1999.90;;;999.90;;
74821;SDS011;63353;48.702;8.884;2024-03-08T03:37:57;1999.90;;;999.90;;
74821;SDS011;63353;48.702;8.884;2024-03-08T03:40:29;1999.90;;;999.90;;
74821;SDS011;63353;48.702;8.884;2024-03-08T03:42:55;1999.90;;;999.90;;
74821;SDS011;63353;48.702;8.884;2024-03-08T03:45:21;1999.90;;;999.90;;
74821;SDS011;63353;48.702;8.884;2024-03-08T03:47:47;1999.90;;;999.90;;
74821;SDS011;63353;48.702;8.884;2024-03-08T03:50:12;1999.90;;;999.90;;
74821;SDS011;63353;48.702;8.884;2024-03-08T03:52:38;1999.90;;;999.90;;
74821;SDS011;63353;48.702;8.884;2024-03-08T03:55:04;1999.90;;;999.90;;
74821;SDS011;63353;48.702;8.884;2024-03-08T03:57:30;1999.90;;;999.90;;
74821;SDS011;63353;48.702;8.884;2024-03-08T03:59:56;1999.90;;;999.90;;
74821;SDS011;63353;48.702;8.884;2024-03-08T04:02:23;1999.90;;;999.90;;
74821;SDS011;63353;48.702;8.884;2024-03-08T04:04:51;1999.90;;;999.90;;
74821;SDS011;63353;48.702;8.884;2024-03-08T04:07:20;1999.90;;;999.90;;
74821;SDS011;63353;48.702;8.884;2024-03-08T04:09:46;1999.90;;;999.90;;
74821;SDS011;63353;48.702;8.884;2024-03-08T04:12:11;1999.90;;;999.90;;
74821;SDS011;63353;48.702;8.884;2024-03-08T04:14:38;1999.90;;;999.90;;
74821;SDS011;63353;48.702;8.884;2024-03-08T04:17:06;1999.90;;;999.90;;
74821;SDS011;63353;48.702;8.884;2024-03-08T04:19:33;1999.90;;;999.90;;
74821;SDS011;63353;48.702;8.884;2024-03-08T04:21:59;1999.90;;;999.90;;
74821;SDS011;63353;48.702;8.884;2024-03-08T04:24:26;1999.90;;;999.90;;
74821;SDS011;63353;48.702;8.884;2024-03-08T04:26:51;1999.90;;;999.90;;
74821;SDS011;63353;48.702;8.884;2024-03-08T04:29:18;1999.90;;;999.90;;
74821;SDS011;63353;48.702;8.884;2024-03-08T04:31:44;1999.90;;;999.90;;
74821;SDS011;63353;48.702;8.884;2024-03-08T04:34:09;1999.90;;;999.90;;
74821;SDS011;63353;48.702;8.884;2024-03-08T04:36:35;1999.90;;;999.90;;
74821;SDS011;63353;48.702;8.884;2024-03-08T04:39:01;1999.90;;;999.90;;
74821;SDS011;63353;48.702;8.884;2024-03-08T04:41:28;1999.90;;;999.90;;
74821;SDS011;63353;48.702;8.884;2024-03-08T04:43:55;1999.90;;;999.90;;
74821;SDS011;63353;48.702;8.884;2024-03-08T04:46:22;1999.90;;;999.90;;
74821;SDS011;63353;48.702;8.884;2024-03-08T04:48:48;1999.90;;;999.90;;
74821;SDS011;63353;48.702;8.884;2024-03-08T04:51:14;1999.90;;;999.90;;
74821;SDS011;63353;48.702;8.884;2024-03-08T04:53:41;1999.90;;;999.90;;
74821;SDS011;63353;48.702;8.884;2024-03-08T04:56:07;1999.90;;;999.90;;
74821;SDS011;63353;48.702;8.884;2024-03-08T04:58:35;1999.90;;;999.90;;
74821;SDS011;63353;48.702;8.884;2024-03-08T05:01:02;1999.90;;;999.90;;
74821;SDS011;63353;48.702;8.884;2024-03-08T05:03:28;1999.90;;;999.90;;
74821;SDS011;63353;48.702;8.884;2024-03-08T05:05:55;1999.90;;;999.90;;
74821;SDS011;63353;48.702;8.884;2024-03-08T05:08:21;1999.90;;;999.90;;
74821;SDS011;63353;48.702;8.884;2024-03-08T05:10:47;1999.90;;;999.90;;
74821;SDS011;63353;48.702;8.884;2024-03-08T05:13:13;1999.90;;;999.90;;
74821;SDS011;63353;48.702;8.884;2024-03-08T05:15:40;1999.90;;;999.90;;
74821;SDS011;63353;48.702;8.884;2024-03-08T05:18:05;1999.90;;;999.90;;
74821;SDS011;63353;48.702;8.884;2024-03-08T05:20:31;1999.90;;;999.90;;
74821;SDS011;63353;48.702;8.884;2024-03-08T05:22:57;1999.90;;;999.90;;
74821;SDS011;63353;48.702;8.884;2024-03-08T05:25:25;1999.90;;;999.90;;
74821;SDS011;63353;48.702;8.884;2024-03-08T05:27:52;1999.90;;;999.90;;
74821;SDS011;63353;48.702;8.884;2024-03-08T05:30:17;1999.90;;;999.90;;
74821;SDS011;63353;48.702;8.884;2024-03-08T05:32:44;1999.90;;;999.90;;
74821;SDS011;63353;48.702;8.884;2024-03-08T05:35:10;1999.90;;;999.90;;
74821;SDS011;63353;48.702;8.884;2024-03-08T05:37:37;1999.90;;;999.90;;
74821;SDS011;63353;48.702;8.884;2024-03-08T05:40:04;1999.90;;;999.90;;
74821;SDS011;63353;48.702;8.884;2024-03-08T05:42:34;1999.90;;;999.90;;
74821;SDS011;63353;48.702;8.884;2024-03-08T05:45:01;1999.90;;;999.90;;
74821;SDS011;63353;48.702;8.884;2024-03-08T05:47:27;1999.90;;;999.90;;
74821;SDS011;63353;48.702;8.884;2024-03-08T05:49:53;1999.90;;;999.90;;
74821;SDS011;63353;48.702;8.884;2024-03-08T05:52:19;1999.90;;;999.90;;
74821;SDS011;63353;48.702;8.884;2024-03-08T05:54:45;1999.90;;;999.90;;
74821;SDS011;63353;48.702;8.884;2024-03-08T05:57:12;1999.90;;;999.90;;
74821;SDS011;63353;48.702;8.884;2024-03-08T05:59:58;1999.90;;;999.90;;
74821;SDS011;63353;48.702;8.884;2024-03-08T06:02:23;1999.90;;;999.90;;
74821;SDS011;63353;48.702;8.884;2024-03-08T06:04:49;1999.90;;;999.90;;
74821;SDS011;63353;48.702;8.884;2024-03-08T06:07:15;1999.90;;;999.90;;
74821;SDS011;63353;48.702;8.884;2024-03-08T06:09:42;1999.90;;;999.90;;
74821;SDS011;63353;48.702;8.884;2024-03-08T06:12:11;1999.90;;;999.90;;
74821;SDS011;63353;48.702;8.884;2024-03-08T06:14:36;1999.90;;;999.90;;
74821;SDS011;63353;48.702;8.884;2024-03-08T06:17:02;1999.90;;;999.90;;
74821;SDS011;63353;48.702;8.884;2024-03-08T06:19:31;1999.90;;;999.90;;
74821;SDS011;63353;48.702;8.884;2024-03-08T06:21:56;1999.90;;;999.90;;
74821;SDS011;63353;48.702;8.884;2024-03-08T06:24:22;1999.90;;;999.90;;
74821;SDS011;63353;48.702;8.884;2024-03-08T06:26:48;1999.90;;;999.90;;
74821;SDS011;63353;48.702;8.884;2024-03-08T06:29:13;1999.90;;;999.90;;
74821;SDS011;63353;48.702;8.884;2024-03-08T06:31:40;1999.90;;;999.90;;
74821;SDS011;63353;48.702;8.884;2024-03-08T06:34:07;1999.90;;;999.90;;
74821;SDS011;63353;48.702;8.884;2024-03-08T06:36:34;1999.90;;;999.90;;
74821;SDS011;63353;48.702;8.884;2024-03-08T06:39:00;1999.90;;;999.90;;
74821;SDS011;63353;48.702;8.884;2024-03-08T06:41:25;1999.90;;;999.90;;
74821;SDS011;63353;48.702;8.884;2024-03-08T06:43:52;1999.90;;;999.90;;
74821;SDS011;63353;48.702;8.884;2024-03-08T06:46:22;1999.90;;;999.90;;
74821;SDS011;63353;48.702;8.884;2024-03-08T06:48:48;1999.90;;;999.90;;
74821;SDS011;63353;48.702;8.884;2024-03-08T06:51:14;1999.90;;;999.90;;
74821;SDS011;63353;48.702;8.884;2024-03-08T06:53:40;1999.90;;;999.90;;
74821;SDS011;63353;48.702;8.884;2024-03-08T06:56:06;1999.90;;;999.90;;
74821;SDS011;63353;48.702;8.884;2024-03-08T06:58:32;1999.90;;;999.90;;
74821;SDS011;63353;48.702;8.884;2024-03-08T07:00:58;1999.90;;;999.90;;
74821;SDS011;63353;48.702;8.884;2024-03-08T07:03:25;1999.90;;;999.90;;
74821;SDS011;63353;48.702;8.884;2024-03-08T07:05:52;1999.90;;;999.90;;
74821;SDS011;63353;48.702;8.884;2024-03-08T07:08:19;1999.90;;;999.90;;
74821;SDS011;63353;48.702;8.884;2024-03-08T07:10:47;1999.90;;;999.90;;
74821;SDS011;63353;48.702;8.884;2024-03-08T07:13:14;1999.90;;;999.90;;
74821;SDS011;63353;48.702;8.884;2024-03-08T07:15:40;1999.90;;;999.90;;
74821;SDS011;63353;48.702;8.884;2024-03-08T07:18:07;1999.90;;;999.90;;
74821;SDS011;63353;48.702;8.884;2024-03-08T07:20:34;1999.90;;;999.90;;
74821;SDS011;63353;48.702;8.884;2024-03-08T07:23:02;1999.90;;;999.90;;
74821;SDS011;63353;48.702;8.884;2024-03-08T07:25:28;1999.90;;;999.90;;
74821;SDS011;63353;48.702;8.884;2024-03-08T07:27:54;1999.90;;;999.90;;
74821;SDS011;63353;48.702;8.884;2024-03-08T07:30:25;1999.90;;;999.90;;
74821;SDS011;63353;48.702;8.884;2024-03-08T07:33:09;1999.90;;;999.90;;
74821;SDS011;63353;48.702;8.884;2024-03-08T07:35:37;1999.90;;;999.90;;
74821;SDS011;63353;48.702;8.884;2024-03-08T07:38:06;1999.90;;;999.90;;
74821;SDS011;63353;48.702;8.884;2024-03-08T07:40:40;1999.90;;;999.90;;
74821;SDS011;63353;48.702;8.884;2024-03-08T07:43:09;1999.90;;;999.90;;
74821;SDS011;63353;48.702;8.884;2024-03-08T07:45:36;1999.90;;;999.90;;
74821;SDS011;63353;48.702;8.884;2024-03-08T07:48:02;1999.90;;;999.90;;
74821;SDS011;63353;48.702;8.884;2024-03-08T07:50:28;1999.90;;;999.90;;
74821;SDS011;63353;48.702;8.884;2024-03-08T07:52:54;1999.90;;;999.90;;
74821;SDS011;63353;48.702;8.884;2024-03-08T07:55:20;1999.90;;;999.90;;
74821;SDS011;63353;48.702;8.884;2024-03-08T07:57:49;1999.90;;;999.90;;
74821;SDS011;63353;48.702;8.884;2024-03-08T08:00:14;1999.90;;;999.90;;
74821;SDS011;63353;48.702;8.884;2024-03-08T08:02:46;1999.90;;;999.90;;
74821;SDS011;63353;48.702;8.884;2024-03-08T08:05:14;1999.90;;;999.90;;
74821;SDS011;63353;48.702;8.884;2024-03-08T08:07:43;1999.90;;;999.90;;
74821;SDS011;63353;48.702;8.884;2024-03-08T08:10:09;1999.90;;;999.90;;
74821;SDS011;63353;48.702;8.884;2024-03-08T08:12:43;1999.90;;;999.90;;
74821;SDS011;63353;48.702;8.884;2024-03-08T08:15:09;1999.90;;;999.90;;
74821;SDS011;63353;48.702;8.884;2024-03-08T08:17:35;1999.90;;;999.90;;
74821;SDS011;63353;48.702;8.884;2024-03-08T08:20:00;1999.90;;;999.90;;
74821;SDS011;63353;48.702;8.884;2024-03-08T08:22:30;1999.90;;;999.90;;
74821;SDS011;63353;48.702;8.884;2024-03-08T08:24:57;1999.90;;;999.90;;
74821;SDS011;63353;48.702;8.884;2024-03-08T08:27:24;1999.90;;;999.90;;
74821;SDS011;63353;48.702;8.884;2024-03-08T08:29:51;1999.90;;;999.90;;
74821;SDS011;63353;48.702;8.884;2024-03-08T08:32:18;1999.90;;;999.90;;
74821;SDS011;63353;48.702;8.884;2024-03-08T08:34:45;1999.90;;;999.90;;
74821;SDS011;63353;48.702;8.884;2024-03-08T08:37:13;1999.90;;;999.90;;
74821;SDS011;63353;48.702;8.884;2024-03-08T08:39:38;1999.90;;;999.90;;
74821;SDS011;63353;48.702;8.884;2024-03-08T08:42:04;1999.90;;;999.90;;
74821;SDS011;63353;48.702;8.884;2024-03-08T08:44:30;1999.90;;;999.90;;
74821;SDS011;63353;48.702;8.884;2024-03-08T08:46:56;1999.90;;;999.90;;
74821;SDS011;63353;48.702;8.884;2024-03-08T08:49:22;1999.90;;;999.90;;
74821;SDS011;63353;48.702;8.884;2024-03-08T08:51:51;1999.90;;;999.90;;
74821;SDS011;63353;48.702;8.884;2024-03-08T08:54:18;1999.90;;;999.90;;
74821;SDS011;63353;48.702;8.884;2024-03-08T08:56:44;1999.90;;;999.90;;
74821;SDS011;63353;48.702;8.884;2024-03-08T08:59:09;1999.90;;;999.90;;
74821;SDS011;63353;48.702;8.884;2024-03-08T09:01:39;1999.90;;;999.90;;
74821;SDS011;63353;48.702;8.884;2024-03-08T09:04:05;1999.90;;;999.90;;
74821;SDS011;63353;48.702;8.884;2024-03-08T09:06:31;1999.90;;;999.90;;
74821;SDS011;63353;48.702;8.884;2024-03-08T09:08:57;1999.90;;;999.90;;
74821;SDS011;63353;48.702;8.884;2024-03-08T09:11:23;1999.90;;;999.90;;
74821;SDS011;63353;48.702;8.884;2024-03-08T09:13:50;1999.90;;;999.90;;
74821;SDS011;63353;48.702;8.884;2024-03-08T09:16:16;1999.90;;;999.90;;
74821;SDS011;63353;48.702;8.884;2024-03-08T09:18:41;1999.90;;;999.90;;
74821;SDS011;63353;48.702;8.884;2024-03-08T09:21:07;1999.90;;;999.90;;
74821;SDS011;63353;48.702;8.884;2024-03-08T09:23:35;1999.90;;;999.90;;
74821;SDS011;63353;48.702;8.884;2024-03-08T09:26:01;1999.90;;;999.90;;
74821;SDS011;63353;48.702;8.884;2024-03-08T09:28:28;1999.90;;;999.90;;
74821;SDS011;63353;48.702;8.884;2024-03-08T09:30:54;1999.90;;;999.90;;
74821;SDS011;63353;48.702;8.884;2024-03-08T09:33:20;1999.90;;;999.90;;
74821;SDS011;63353;48.702;8.884;2024-03-08T09:35:47;1999.90;;;999.90;;
74821;SDS011;63353;48.702;8.884;2024-03-08T09:38:13;1999.90;;;999.90;;
74821;SDS011;63353;48.702;8.884;2024-03-08T09:40:42;1999.90;;;999.90;;
74821;SDS011;63353;48.702;8.884;2024-03-08T09:43:11;1999.90;;;999.90;;
74821;SDS011;63353;48.702;8.884;2024-03-08T09:45:39;1999.90;;;999.90;;
74821;SDS011;63353;48.702;8.884;2024-03-08T09:48:08;1999.90;;;999.90;;
74821;SDS011;63353;48.702;8.884;2024-03-08T09:50:41;262.30;;;245.27;;
74821;SDS011;63353;48.702;8.884;2024-03-08T09:53:09;556.40;;;515.33;;
74821;SDS011;63353;48.702;8.884;2024-03-08T09:55:37;331.20;;;309.83;;
74821;SDS011;63353;48.702;8.884;2024-03-08T09:58:07;529.57;;;494.77;;
74821;SDS011;63353;48.702;8.884;2024-03-08T10:00:53;428.23;;;401.07;;
74821;SDS011;63353;48.702;8.884;2024-03-08T10:03:19;632.93;;;593.93;;
74821;SDS011;63353;48.702;8.884;2024-03-08T10:05:45;480.13;;;450.67;;
74821;SDS011;63353;48.702;8.884;2024-03-08T10:08:12;319.87;;;298.97;;
74821;SDS011;63353;48.702;8.884;2024-03-08T10:10:38;315.60;;;295.47;;
74821;SDS011;63353;48.702;8.884;2024-03-08T10:13:07;242.80;;;227.23;;
74821;SDS011;63353;48.702;8.884;2024-03-08T10:15:34;213.30;;;199.70;;
74821;SDS011;63353;48.702;8.884;2024-03-08T10:18:01;116.00;;;109.23;;
74821;SDS011;63353;48.702;8.884;2024-03-08T10:20:27;104.87;;;99.10;;
74821;SDS011;63353;48.702;8.884;2024-03-08T10:23:00;68.13;;;63.73;;
74821;SDS011;63353;48.702;8.884;2024-03-08T10:25:33;113.97;;;107.90;;
74821;SDS011;63353;48.702;8.884;2024-03-08T10:27:59;79.57;;;75.00;;
74821;SDS011;63353;48.702;8.884;2024-03-08T10:30:25;107.57;;;101.77;;
74821;SDS011;63353;48.702;8.884;2024-03-08T10:32:52;293.30;;;278.33;;
74821;SDS011;63353;48.702;8.884;2024-03-08T10:35:17;70.90;;;66.70;;
74821;SDS011;63353;48.702;8.884;2024-03-08T10:37:49;402.50;;;379.97;;
74821;SDS011;63353;48.702;8.884;2024-03-08T10:40:23;301.73;;;288.43;;
74821;SDS011;63353;48.702;8.884;2024-03-08T10:45:38;349.87;;;332.33;;
74821;SDS011;63353;48.702;8.884;2024-03-08T10:48:10;223.77;;;214.07;;
74821;SDS011;63353;48.702;8.884;2024-03-08T10:50:53;171.57;;;163.37;;
74821;SDS011;63353;48.702;8.884;2024-03-08T10:53:19;168.37;;;160.07;;
74821;SDS011;63353;48.702;8.884;2024-03-08T10:55:47;511.03;;;484.43;;
74821;SDS011;63353;48.702;8.884;2024-03-08T10:58:22;545.60;;;518.63;;
74821;SDS011;63353;48.702;8.884;2024-03-08T11:00:55;706.93;;;666.07;;
74821;SDS011;63353;48.702;8.884;2024-03-08T11:06:13;823.20;;;773.37;;
74821;SDS011;63353;48.702;8.884;2024-03-08T11:08:40;609.87;;;574.57;;
74821;SDS011;63353;48.702;8.884;2024-03-08T11:11:09;293.83;;;276.47;;
74821;SDS011;63353;48.702;8.884;2024-03-08T11:13:52;284.63;;;270.17;;
74821;SDS011;63353;48.702;8.884;2024-03-08T11:18:52;280.90;;;267.20;;
74821;SDS011;63353;48.702;8.884;2024-03-08T11:21:19;34.77;;;31.60;;
74821;SDS011;63353;48.702;8.884;2024-03-08T11:24:06;81.50;;;76.67;;
74821;SDS011;63353;48.702;8.884;2024-03-08T11:26:33;171.77;;;163.27;;
74821;SDS011;63353;48.702;8.884;2024-03-08T11:31:52;42.10;;;38.77;;
74821;SDS011;63353;48.702;8.884;2024-03-08T11:34:46;179.50;;;171.10;;
74821;SDS011;63353;48.702;8.884;2024-03-08T11:37:13;322.80;;;307.97;;
74821;SDS011;63353;48.702;8.884;2024-03-08T11:39:49;395.37;;;377.37;;
74821;SDS011;63353;48.702;8.884;2024-03-08T11:42:23;383.77;;;366.37;;
74821;SDS011;63353;48.702;8.884;2024-03-08T11:44:51;389.33;;;371.43;;
74821;SDS011;63353;48.702;8.884;2024-03-08T11:47:18;296.80;;;282.77;;
74821;SDS011;63353;48.702;8.884;2024-03-08T11:49:43;205.83;;;196.20;;
74821;SDS011;63353;48.702;8.884;2024-03-08T11:52:11;168.50;;;160.43;;
74821;SDS011;63353;48.702;8.884;2024-03-08T11:54:42;256.27;;;244.13;;
74821;SDS011;63353;48.702;8.884;2024-03-08T11:57:16;153.43;;;146.00;;
74821;SDS011;63353;48.702;8.884;2024-03-08T11:59:49;181.93;;;173.17;;
74821;SDS011;63353;48.702;8.884;2024-03-08T12:02:17;79.77;;;75.17;;
74821;SDS011;63353;48.702;8.884;2024-03-08T12:04:44;223.10;;;212.90;;
74821;SDS011;63353;48.702;8.884;2024-03-08T12:07:13;175.90;;;167.93;;
74821;SDS011;63353;48.702;8.884;2024-03-08T12:09:42;44.67;;;41.57;;
74821;SDS011;63353;48.702;8.884;2024-03-08T12:12:11;17.40;;;15.60;;
74821;SDS011;63353;48.702;8.884;2024-03-08T12:14:37;30.13;;;27.83;;
74821;SDS011;63353;48.702;8.884;2024-03-08T12:17:04;33.87;;;31.30;;
74821;SDS011;63353;48.702;8.884;2024-03-08T12:19:30;17.27;;;13.13;;
74821;SDS011;63353;48.702;8.884;2024-03-08T12:21:57;24.23;;;21.80;;
74821;SDS011;63353;48.702;8.884;2024-03-08T12:24:33;21.37;;;19.00;;
74821;SDS011;63353;48.702;8.884;2024-03-08T12:26:59;38.10;;;34.37;;
74821;SDS011;63353;48.702;8.884;2024-03-08T12:29:25;38.13;;;35.20;;
74821;SDS011;63353;48.702;8.884;2024-03-08T12:31:53;161.87;;;153.93;;
74821;SDS011;63353;48.702;8.884;2024-03-08T12:34:20;315.37;;;300.70;;
74821;SDS011;63353;48.702;8.884;2024-03-08T12:36:47;367.47;;;349.93;;
74821;SDS011;63353;48.702;8.884;2024-03-08T12:39:18;303.30;;;289.83;;
74821;SDS011;63353;48.702;8.884;2024-03-08T12:41:47;81.93;;;77.50;;
74821;SDS011;63353;48.702;8.884;2024-03-08T12:44:19;330.03;;;314.73;;
74821;SDS011;63353;48.702;8.884;2024-03-08T12:46:46;317.07;;;303.10;;
74821;SDS011;63353;48.702;8.884;2024-03-08T12:49:13;302.90;;;289.10;;
74821;SDS011;63353;48.702;8.884;2024-03-08T12:51:42;332.90;;;318.03;;
74821;SDS011;63353;48.702;8.884;2024-03-08T12:54:11;312.33;;;295.60;;
74821;SDS011;63353;48.702;8.884;2024-03-08T12:56:37;377.80;;;360.83;;
74821;SDS011;63353;48.702;8.884;2024-03-08T12:59:03;229.30;;;218.70;;
74821;SDS011;63353;48.702;8.884;2024-03-08T13:01:30;234.57;;;224.13;;
74821;SDS011;63353;48.702;8.884;2024-03-08T13:03:58;285.13;;;272.03;;
74821;SDS011;63353;48.702;8.884;2024-03-08T13:06:30;304.87;;;291.10;;
74821;SDS011;63353;48.702;8.884;2024-03-08T13:08:56;277.93;;;265.33;;
74821;SDS011;63353;48.702;8.884;2024-03-08T13:11:24;280.67;;;268.00;;
74821;SDS011;63353;48.702;8.884;2024-03-08T13:13:52;271.77;;;259.57;;
74821;SDS011;63353;48.702;8.884;2024-03-08T13:16:19;183.33;;;174.43;;
74821;SDS011;63353;48.702;8.884;2024-03-08T13:18:47;110.17;;;104.20;;
74821;SDS011;63353;48.702;8.884;2024-03-08T13:21:15;223.77;;;213.50;;
74821;SDS011;63353;48.702;8.884;2024-03-08T13:23:45;153.03;;;145.67;;
74821;SDS011;63353;48.702;8.884;2024-03-08T13:26:14;200.63;;;191.33;;
74821;SDS011;63353;48.702;8.884;2024-03-08T13:28:49;119.47;;;113.37;;
74821;SDS011;63353;48.702;8.884;2024-03-08T13:31:22;78.60;;;73.93;;
74821;SDS011;63353;48.702;8.884;2024-03-08T13:33:49;32.27;;;29.57;;
74821;SDS011;63353;48.702;8.884;2024-03-08T13:36:16;23.87;;;21.60;;
74821;SDS011;63353;48.702;8.884;2024-03-08T13:38:48;18.90;;;12.40;;
74821;SDS011;63353;48.702;8.884;2024-03-08T13:41:14;19.10;;;12.17;;
74821;SDS011;63353;48.702;8.884;2024-03-08T13:43:42;15.80;;;10.70;;
74821;SDS011;63353;48.702;8.884;2024-03-08T13:46:08;15.37;;;10.90;;
74821;SDS011;63353;48.702;8.884;2024-03-08T13:48:35;18.07;;;11.87;;
74821;SDS011;63353;48.702;8.884;2024-03-08T13:51:02;18.47;;;12.27;;
74821;SDS011;63353;48.702;8.884;2024-03-08T13:53:32;49.27;;;29.53;;
74821;SDS011;63353;48.702;8.884;2024-03-08T13:56:00;18.97;;;13.73;;
74821;SDS011;63353;48.702;8.884;2024-03-08T13:58:27;17.27;;;12.60;;
74821;SDS011;63353;48.702;8.884;2024-03-08T14:00:52;18.67;;;12.83;;
74821;SDS011;63353;48.702;8.884;2024-03-08T14:03:18;18.93;;;13.83;;